sensor_id;sensor_type;location;lat;lon;timestamp;pressure;altitude;pressure_sealevel;temperature
11424;BMP180;5768;51.476;7.210;2023-08-20T00:01:22;100792.00;;;23.50
11424;BMP180;5768;51.476;7.210;2023-08-20T00:06:26;100780.00;;;23.50
11424;BMP180;5768;51.476;7.210;2023-08-20T00:11:28;100783.00;;;23.50
11424;BMP180;5768;51.476;7.210;2023-08-20T00:16:34;100774.00;;;23.50
11424;BMP180;5768;51.476;7.210;2023-08-20T00:21:41;100782.00;;;23.50
11424;BMP180;5768;51.476;7.210;2023-08-20T00:26:45;100792.00;;;23.50
11424;BMP180;5768;51.476;7.210;2023-08-20T00:31:49;100785.00;;;23.50
11424;BMP180;5768;51.476;7.210;2023-08-20T00:36:51;100776.00;;;23.50
11424;BMP180;5768;51.476;7.210;2023-08-20T00:41:53;100769.00;;;23.40
11424;BMP180;5768;51.476;7.210;2023-08-20T00:46:57;100784.00;;;23.30
11424;BMP180;5768;51.476;7.210;2023-08-20T00:52:03;100784.00;;;23.30
11424;BMP180;5768;51.476;7.210;2023-08-20T00:57:07;100775.00;;;23.30
11424;BMP180;5768;51.476;7.210;2023-08-20T01:02:11;100770.00;;;23.20
11424;BMP180;5768;51.476;7.210;2023-08-20T01:07:24;100760.00;;;23.20
11424;BMP180;5768;51.476;7.210;2023-08-20T01:12:29;100771.00;;;23.20
11424;BMP180;5768;51.476;7.210;2023-08-20T01:17:32;100763.00;;;23.20
11424;BMP180;5768;51.476;7.210;2023-08-20T01:23:08;100767.00;;;23.10
11424;BMP180;5768;51.476;7.210;2023-08-20T01:28:25;100767.00;;;23.10
11424;BMP180;5768;51.476;7.210;2023-08-20T01:33:28;100773.00;;;23.10
11424;BMP180;5768;51.476;7.210;2023-08-20T01:38:31;100770.00;;;23.10
11424;BMP180;5768;51.476;7.210;2023-08-20T01:43:34;100774.00;;;23.10
11424;BMP180;5768;51.476;7.210;2023-08-20T01:48:36;100778.00;;;23.00
11424;BMP180;5768;51.476;7.210;2023-08-20T01:53:39;100788.00;;;23.00
11424;BMP180;5768;51.476;7.210;2023-08-20T01:58:43;100781.00;;;23.00
11424;BMP180;5768;51.476;7.210;2023-08-20T02:03:45;100775.00;;;22.90
11424;BMP180;5768;51.476;7.210;2023-08-20T02:08:48;100775.00;;;22.90
11424;BMP180;5768;51.476;7.210;2023-08-20T02:13:51;100771.00;;;22.90
11424;BMP180;5768;51.476;7.210;2023-08-20T02:18:53;100772.00;;;22.80
11424;BMP180;5768;51.476;7.210;2023-08-20T02:23:56;100777.00;;;22.90
11424;BMP180;5768;51.476;7.210;2023-08-20T02:28:59;100789.00;;;23.00
11424;BMP180;5768;51.476;7.210;2023-08-20T02:34:02;100798.00;;;23.10
11424;BMP180;5768;51.476;7.210;2023-08-20T02:39:04;100798.00;;;23.10
11424;BMP180;5768;51.476;7.210;2023-08-20T02:44:10;100813.00;;;23.10
11424;BMP180;5768;51.476;7.210;2023-08-20T02:49:12;100821.00;;;23.20
11424;BMP180;5768;51.476;7.210;2023-08-20T02:54:15;100829.00;;;23.30
11424;BMP180;5768;51.476;7.210;2023-08-20T02:59:19;100833.00;;;23.30
11424;BMP180;5768;51.476;7.210;2023-08-20T03:04:22;100819.00;;;23.20
11424;BMP180;5768;51.476;7.210;2023-08-20T03:09:24;100817.00;;;23.10
11424;BMP180;5768;51.476;7.210;2023-08-20T03:14:28;100823.00;;;23.10
11424;BMP180;5768;51.476;7.210;2023-08-20T03:19:34;100822.00;;;23.10
11424;BMP180;5768;51.476;7.210;2023-08-20T03:24:37;100817.00;;;23.10
11424;BMP180;5768;51.476;7.210;2023-08-20T03:29:40;100820.00;;;23.10
11424;BMP180;5768;51.476;7.210;2023-08-20T03:34:43;100824.00;;;23.00
11424;BMP180;5768;51.476;7.210;2023-08-20T03:39:45;100823.00;;;23.00
11424;BMP180;5768;51.476;7.210;2023-08-20T03:44:49;100836.00;;;23.10
11424;BMP180;5768;51.476;7.210;2023-08-20T03:49:52;100830.00;;;23.10
11424;BMP180;5768;51.476;7.210;2023-08-20T03:54:54;100834.00;;;23.10
11424;BMP180;5768;51.476;7.210;2023-08-20T03:59:58;100838.00;;;23.00
11424;BMP180;5768;51.476;7.210;2023-08-20T04:05:00;100832.00;;;22.90
11424;BMP180;5768;51.476;7.210;2023-08-20T04:10:02;100837.00;;;22.80
11424;BMP180;5768;51.476;7.210;2023-08-20T04:15:07;100839.00;;;22.70
11424;BMP180;5768;51.476;7.210;2023-08-20T04:20:10;100834.00;;;22.60
11424;BMP180;5768;51.476;7.210;2023-08-20T04:25:12;100837.00;;;22.60
11424;BMP180;5768;51.476;7.210;2023-08-20T04:30:16;100843.00;;;22.60
11424;BMP180;5768;51.476;7.210;2023-08-20T04:35:18;100838.00;;;22.70
11424;BMP180;5768;51.476;7.210;2023-08-20T04:40:21;100845.00;;;22.70
11424;BMP180;5768;51.476;7.210;2023-08-20T04:45:25;100861.00;;;22.90
11424;BMP180;5768;51.476;7.210;2023-08-20T04:50:27;100864.00;;;23.00
11424;BMP180;5768;51.476;7.210;2023-08-20T04:55:30;100864.00;;;23.10
11424;BMP180;5768;51.476;7.210;2023-08-20T05:00:34;100866.00;;;23.30
11424;BMP180;5768;51.476;7.210;2023-08-20T05:05:36;100874.00;;;23.40
11424;BMP180;5768;51.476;7.210;2023-08-20T05:10:38;100873.00;;;23.50
11424;BMP180;5768;51.476;7.210;2023-08-20T05:15:42;100866.00;;;23.60
11424;BMP180;5768;51.476;7.210;2023-08-20T05:20:44;100879.00;;;23.70
11424;BMP180;5768;51.476;7.210;2023-08-20T05:25:47;100881.00;;;23.80
11424;BMP180;5768;51.476;7.210;2023-08-20T05:30:56;100873.00;;;23.80
11424;BMP180;5768;51.476;7.210;2023-08-20T05:36:00;100877.00;;;23.80
11424;BMP180;5768;51.476;7.210;2023-08-20T05:41:02;100886.00;;;23.90
11424;BMP180;5768;51.476;7.210;2023-08-20T05:46:06;100883.00;;;24.00
11424;BMP180;5768;51.476;7.210;2023-08-20T05:51:08;100890.00;;;24.10
11424;BMP180;5768;51.476;7.210;2023-08-20T05:56:11;100887.00;;;24.20
11424;BMP180;5768;51.476;7.210;2023-08-20T06:01:15;100882.00;;;24.30
11424;BMP180;5768;51.476;7.210;2023-08-20T06:06:17;100896.00;;;24.40
11424;BMP180;5768;51.476;7.210;2023-08-20T06:11:20;100896.00;;;24.60
11424;BMP180;5768;51.476;7.210;2023-08-20T06:16:23;100888.00;;;24.60
11424;BMP180;5768;51.476;7.210;2023-08-20T06:21:25;100898.00;;;24.70
11424;BMP180;5768;51.476;7.210;2023-08-20T06:26:28;100899.00;;;24.80
11424;BMP180;5768;51.476;7.210;2023-08-20T06:31:32;100891.00;;;24.80
11424;BMP180;5768;51.476;7.210;2023-08-20T06:36:34;100891.00;;;24.80
11424;BMP180;5768;51.476;7.210;2023-08-20T06:41:36;100885.00;;;24.80
11424;BMP180;5768;51.476;7.210;2023-08-20T06:46:40;100884.00;;;24.80
11424;BMP180;5768;51.476;7.210;2023-08-20T06:51:43;100889.00;;;24.90
11424;BMP180;5768;51.476;7.210;2023-08-20T06:56:45;100897.00;;;25.00
11424;BMP180;5768;51.476;7.210;2023-08-20T07:01:49;100907.00;;;25.00
11424;BMP180;5768;51.476;7.210;2023-08-20T07:06:51;100904.00;;;25.10
11424;BMP180;5768;51.476;7.210;2023-08-20T07:11:53;100903.00;;;25.30
11424;BMP180;5768;51.476;7.210;2023-08-20T07:16:57;100900.00;;;25.40
11424;BMP180;5768;51.476;7.210;2023-08-20T07:22:06;100901.00;;;25.60
11424;BMP180;5768;51.476;7.210;2023-08-20T07:27:09;100902.00;;;25.80
11424;BMP180;5768;51.476;7.210;2023-08-20T07:32:14;100898.00;;;25.90
11424;BMP180;5768;51.476;7.210;2023-08-20T07:37:17;100895.00;;;26.00
11424;BMP180;5768;51.476;7.210;2023-08-20T07:42:19;100898.00;;;26.20
11424;BMP180;5768;51.476;7.210;2023-08-20T07:47:23;100890.00;;;26.30
11424;BMP180;5768;51.476;7.210;2023-08-20T07:52:25;100896.00;;;26.50
11424;BMP180;5768;51.476;7.210;2023-08-20T07:57:27;100890.00;;;26.60
11424;BMP180;5768;51.476;7.210;2023-08-20T08:02:31;100904.00;;;26.80
11424;BMP180;5768;51.476;7.210;2023-08-20T08:07:33;100904.00;;;26.90
11424;BMP180;5768;51.476;7.210;2023-08-20T08:12:35;100911.00;;;27.00
11424;BMP180;5768;51.476;7.210;2023-08-20T08:17:39;100913.00;;;27.10
11424;BMP180;5768;51.476;7.210;2023-08-20T08:22:41;100919.00;;;27.30
11424;BMP180;5768;51.476;7.210;2023-08-20T08:27:43;100915.00;;;27.50
11424;BMP180;5768;51.476;7.210;2023-08-20T08:32:48;100913.00;;;27.70
11424;BMP180;5768;51.476;7.210;2023-08-20T08:37:50;100911.00;;;27.90
11424;BMP180;5768;51.476;7.210;2023-08-20T08:42:53;100920.00;;;28.30
11424;BMP180;5768;51.476;7.210;2023-08-20T08:47:57;100926.00;;;28.70
11424;BMP180;5768;51.476;7.210;2023-08-20T08:52:59;100920.00;;;28.80
11424;BMP180;5768;51.476;7.210;2023-08-20T08:58:02;100925.00;;;28.90
11424;BMP180;5768;51.476;7.210;2023-08-20T09:03:06;100925.00;;;29.20
11424;BMP180;5768;51.476;7.210;2023-08-20T09:08:08;100919.00;;;29.60
11424;BMP180;5768;51.476;7.210;2023-08-20T09:13:11;100924.00;;;29.80
11424;BMP180;5768;51.476;7.210;2023-08-20T09:18:14;100923.00;;;30.00
11424;BMP180;5768;51.476;7.210;2023-08-20T09:23:17;100921.00;;;30.10
11424;BMP180;5768;51.476;7.210;2023-08-20T09:28:22;100925.00;;;30.00
11424;BMP180;5768;51.476;7.210;2023-08-20T09:33:26;100927.00;;;30.00
11424;BMP180;5768;51.476;7.210;2023-08-20T09:38:29;100927.00;;;30.00
11424;BMP180;5768;51.476;7.210;2023-08-20T09:43:33;100937.00;;;30.10
11424;BMP180;5768;51.476;7.210;2023-08-20T09:48:41;100934.00;;;29.90
11424;BMP180;5768;51.476;7.210;2023-08-20T09:53:53;100942.00;;;30.40
11424;BMP180;5768;51.476;7.210;2023-08-20T09:58:58;100942.00;;;30.70
11424;BMP180;5768;51.476;7.210;2023-08-20T10:04:03;100944.00;;;30.80
11424;BMP180;5768;51.476;7.210;2023-08-20T10:09:06;100936.00;;;30.80
11424;BMP180;5768;51.476;7.210;2023-08-20T10:14:09;100945.00;;;30.70
11424;BMP180;5768;51.476;7.210;2023-08-20T10:19:15;100945.00;;;30.30
11424;BMP180;5768;51.476;7.210;2023-08-20T10:24:18;100944.00;;;29.90
11424;BMP180;5768;51.476;7.210;2023-08-20T10:29:41;100939.00;;;29.80
11424;BMP180;5768;51.476;7.210;2023-08-20T10:34:51;100945.00;;;30.00
11424;BMP180;5768;51.476;7.210;2023-08-20T10:39:54;100949.00;;;30.60
11424;BMP180;5768;51.476;7.210;2023-08-20T10:45:06;100949.00;;;30.90
11424;BMP180;5768;51.476;7.210;2023-08-20T10:50:14;100939.00;;;31.20
11424;BMP180;5768;51.476;7.210;2023-08-20T10:55:22;100946.00;;;31.30
11424;BMP180;5768;51.476;7.210;2023-08-20T11:00:25;100945.00;;;30.90
11424;BMP180;5768;51.476;7.210;2023-08-20T11:05:30;100949.00;;;30.80
11424;BMP180;5768;51.476;7.210;2023-08-20T11:10:34;100943.00;;;30.80
11424;BMP180;5768;51.476;7.210;2023-08-20T11:15:37;100950.00;;;31.10
11424;BMP180;5768;51.476;7.210;2023-08-20T11:20:41;100950.00;;;31.40
11424;BMP180;5768;51.476;7.210;2023-08-20T11:25:43;100947.00;;;31.50
11424;BMP180;5768;51.476;7.210;2023-08-20T11:30:46;100955.00;;;31.80
11424;BMP180;5768;51.476;7.210;2023-08-20T11:35:52;100951.00;;;31.80
11424;BMP180;5768;51.476;7.210;2023-08-20T11:40:55;100956.00;;;31.00
11424;BMP180;5768;51.476;7.210;2023-08-20T11:45:58;100953.00;;;30.70
11424;BMP180;5768;51.476;7.210;2023-08-20T11:51:02;100943.00;;;30.60
11424;BMP180;5768;51.476;7.210;2023-08-20T11:56:06;100945.00;;;30.70
11424;BMP180;5768;51.476;7.210;2023-08-20T12:01:08;100944.00;;;31.00
11424;BMP180;5768;51.476;7.210;2023-08-20T12:06:22;100940.00;;;31.60
11424;BMP180;5768;51.476;7.210;2023-08-20T12:11:28;100944.00;;;32.00
11424;BMP180;5768;51.476;7.210;2023-08-20T12:16:31;100945.00;;;32.00
11424;BMP180;5768;51.476;7.210;2023-08-20T12:21:34;100934.00;;;32.10
11424;BMP180;5768;51.476;7.210;2023-08-20T12:26:37;100934.00;;;32.60
11424;BMP180;5768;51.476;7.210;2023-08-20T12:31:41;100940.00;;;33.10
11424;BMP180;5768;51.476;7.210;2023-08-20T12:36:44;100933.00;;;33.90
11424;BMP180;5768;51.476;7.210;2023-08-20T12:41:47;100930.00;;;34.50
11424;BMP180;5768;51.476;7.210;2023-08-20T12:46:49;100925.00;;;35.20
11424;BMP180;5768;51.476;7.210;2023-08-20T12:51:53;100926.00;;;36.10
11424;BMP180;5768;51.476;7.210;2023-08-20T12:56:56;100925.00;;;37.40
11424;BMP180;5768;51.476;7.210;2023-08-20T13:01:58;100919.00;;;37.80
11424;BMP180;5768;51.476;7.210;2023-08-20T13:07:04;100917.00;;;37.80
11424;BMP180;5768;51.476;7.210;2023-08-20T13:12:09;100929.00;;;35.90
11424;BMP180;5768;51.476;7.210;2023-08-20T13:17:13;100921.00;;;37.10
11424;BMP180;5768;51.476;7.210;2023-08-20T13:22:17;100922.00;;;37.10
11424;BMP180;5768;51.476;7.210;2023-08-20T13:27:19;100914.00;;;37.70
11424;BMP180;5768;51.476;7.210;2023-08-20T13:32:22;100904.00;;;39.10
11424;BMP180;5768;51.476;7.210;2023-08-20T13:37:27;100913.00;;;39.10
11424;BMP180;5768;51.476;7.210;2023-08-20T13:42:30;100915.00;;;37.60
11424;BMP180;5768;51.476;7.210;2023-08-20T13:47:32;100912.00;;;36.70
11424;BMP180;5768;51.476;7.210;2023-08-20T13:52:36;100909.00;;;37.30
11424;BMP180;5768;51.476;7.210;2023-08-20T13:57:39;100915.00;;;39.60
11424;BMP180;5768;51.476;7.210;2023-08-20T14:02:41;100917.00;;;39.40
11424;BMP180;5768;51.476;7.210;2023-08-20T14:07:45;100926.00;;;41.50
11424;BMP180;5768;51.476;7.210;2023-08-20T14:12:48;100930.00;;;42.30
11424;BMP180;5768;51.476;7.210;2023-08-20T14:17:50;100918.00;;;40.70
11424;BMP180;5768;51.476;7.210;2023-08-20T14:22:54;100923.00;;;39.60
11424;BMP180;5768;51.476;7.210;2023-08-20T14:27:56;100924.00;;;42.20
11424;BMP180;5768;51.476;7.210;2023-08-20T14:32:58;100931.00;;;44.20
11424;BMP180;5768;51.476;7.210;2023-08-20T14:38:02;100921.00;;;46.00
11424;BMP180;5768;51.476;7.210;2023-08-20T14:43:04;100918.00;;;47.00
11424;BMP180;5768;51.476;7.210;2023-08-20T14:48:07;100917.00;;;48.10
11424;BMP180;5768;51.476;7.210;2023-08-20T14:53:10;100909.00;;;48.70
11424;BMP180;5768;51.476;7.210;2023-08-20T14:58:13;100916.00;;;48.50
11424;BMP180;5768;51.476;7.210;2023-08-20T15:03:15;100906.00;;;48.30
11424;BMP180;5768;51.476;7.210;2023-08-20T15:08:20;100906.00;;;48.40
11424;BMP180;5768;51.476;7.210;2023-08-20T15:13:23;100900.00;;;49.50
11424;BMP180;5768;51.476;7.210;2023-08-20T15:18:25;100900.00;;;49.10
11424;BMP180;5768;51.476;7.210;2023-08-20T15:23:29;100906.00;;;48.30
11424;BMP180;5768;51.476;7.210;2023-08-20T15:28:32;100893.00;;;49.10
11424;BMP180;5768;51.476;7.210;2023-08-20T15:33:35;100899.00;;;50.10
11424;BMP180;5768;51.476;7.210;2023-08-20T15:38:39;100894.00;;;49.90
11424;BMP180;5768;51.476;7.210;2023-08-20T15:43:41;100901.00;;;49.80
11424;BMP180;5768;51.476;7.210;2023-08-20T15:48:44;100907.00;;;49.10
11424;BMP180;5768;51.476;7.210;2023-08-20T15:53:48;100900.00;;;49.80
11424;BMP180;5768;51.476;7.210;2023-08-20T15:58:50;100897.00;;;49.90
11424;BMP180;5768;51.476;7.210;2023-08-20T16:03:52;100902.00;;;49.70
11424;BMP180;5768;51.476;7.210;2023-08-20T16:08:57;100903.00;;;49.30
11424;BMP180;5768;51.476;7.210;2023-08-20T16:13:59;100904.00;;;49.70
11424;BMP180;5768;51.476;7.210;2023-08-20T16:19:01;100909.00;;;50.30
11424;BMP180;5768;51.476;7.210;2023-08-20T16:24:06;100904.00;;;47.50
11424;BMP180;5768;51.476;7.210;2023-08-20T16:29:08;100906.00;;;47.40
11424;BMP180;5768;51.476;7.210;2023-08-20T16:34:10;100904.00;;;48.00
11424;BMP180;5768;51.476;7.210;2023-08-20T16:39:14;100904.00;;;48.10
11424;BMP180;5768;51.476;7.210;2023-08-20T16:44:16;100913.00;;;48.50
11424;BMP180;5768;51.476;7.210;2023-08-20T16:49:21;100919.00;;;48.70
11424;BMP180;5768;51.476;7.210;2023-08-20T16:54:26;100910.00;;;48.50
11424;BMP180;5768;51.476;7.210;2023-08-20T16:59:29;100910.00;;;48.30
11424;BMP180;5768;51.476;7.210;2023-08-20T17:04:32;100913.00;;;45.30
11424;BMP180;5768;51.476;7.210;2023-08-20T17:09:36;100913.00;;;41.70
11424;BMP180;5768;51.476;7.210;2023-08-20T17:14:38;100908.00;;;39.30
11424;BMP180;5768;51.476;7.210;2023-08-20T17:19:41;100914.00;;;37.90
11424;BMP180;5768;51.476;7.210;2023-08-20T17:24:44;100918.00;;;37.00
11424;BMP180;5768;51.476;7.210;2023-08-20T17:29:47;100909.00;;;36.30
11424;BMP180;5768;51.476;7.210;2023-08-20T17:34:50;100910.00;;;35.80
11424;BMP180;5768;51.476;7.210;2023-08-20T17:39:53;100914.00;;;35.00
11424;BMP180;5768;51.476;7.210;2023-08-20T17:44:55;100907.00;;;34.40
11424;BMP180;5768;51.476;7.210;2023-08-20T17:49:58;100909.00;;;34.10
11424;BMP180;5768;51.476;7.210;2023-08-20T17:55:02;100907.00;;;33.70
11424;BMP180;5768;51.476;7.210;2023-08-20T18:00:06;100914.00;;;33.30
11424;BMP180;5768;51.476;7.210;2023-08-20T18:05:09;100913.00;;;32.90
11424;BMP180;5768;51.476;7.210;2023-08-20T18:10:14;100912.00;;;32.60
11424;BMP180;5768;51.476;7.210;2023-08-20T18:15:17;100906.00;;;32.30
11424;BMP180;5768;51.476;7.210;2023-08-20T18:20:19;100911.00;;;32.00
11424;BMP180;5768;51.476;7.210;2023-08-20T18:25:23;100910.00;;;31.60
11424;BMP180;5768;51.476;7.210;2023-08-20T18:30:25;100911.00;;;31.30
11424;BMP180;5768;51.476;7.210;2023-08-20T18:35:29;100911.00;;;30.90
11424;BMP180;5768;51.476;7.210;2023-08-20T18:40:33;100916.00;;;30.60
11424;BMP180;5768;51.476;7.210;2023-08-20T18:45:35;100915.00;;;30.30
11424;BMP180;5768;51.476;7.210;2023-08-20T18:50:38;100919.00;;;30.00
11424;BMP180;5768;51.476;7.210;2023-08-20T18:55:42;100923.00;;;29.70
11424;BMP180;5768;51.476;7.210;2023-08-20T19:00:45;100917.00;;;29.50
11424;BMP180;5768;51.476;7.210;2023-08-20T19:05:48;100931.00;;;29.20
11424;BMP180;5768;51.476;7.210;2023-08-20T19:10:52;100939.00;;;29.00
11424;BMP180;5768;51.476;7.210;2023-08-20T19:15:54;100939.00;;;28.80
11424;BMP180;5768;51.476;7.210;2023-08-20T19:20:56;100942.00;;;28.60
11424;BMP180;5768;51.476;7.210;2023-08-20T19:26:00;100948.00;;;28.30
11424;BMP180;5768;51.476;7.210;2023-08-20T19:31:03;100948.00;;;28.20
11424;BMP180;5768;51.476;7.210;2023-08-20T19:36:06;100948.00;;;28.00
11424;BMP180;5768;51.476;7.210;2023-08-20T19:41:09;100949.00;;;27.80
11424;BMP180;5768;51.476;7.210;2023-08-20T19:46:11;100950.00;;;27.60
11424;BMP180;5768;51.476;7.210;2023-08-20T19:51:15;100950.00;;;27.40
11424;BMP180;5768;51.476;7.210;2023-08-20T19:56:18;100944.00;;;27.30
11424;BMP180;5768;51.476;7.210;2023-08-20T20:01:22;100942.00;;;27.10
11424;BMP180;5768;51.476;7.210;2023-08-20T20:06:25;100959.00;;;27.00
11424;BMP180;5768;51.476;7.210;2023-08-20T20:11:29;100952.00;;;26.80
11424;BMP180;5768;51.476;7.210;2023-08-20T20:16:31;100960.00;;;26.70
11424;BMP180;5768;51.476;7.210;2023-08-20T20:21:34;100958.00;;;26.60
11424;BMP180;5768;51.476;7.210;2023-08-20T20:26:38;100970.00;;;26.40
11424;BMP180;5768;51.476;7.210;2023-08-20T20:31:41;100959.00;;;26.30
11424;BMP180;5768;51.476;7.210;2023-08-20T20:36:43;100957.00;;;26.20
11424;BMP180;5768;51.476;7.210;2023-08-20T20:41:47;100966.00;;;26.10
11424;BMP180;5768;51.476;7.210;2023-08-20T20:46:49;100967.00;;;26.00
11424;BMP180;5768;51.476;7.210;2023-08-20T20:51:52;100965.00;;;25.90
11424;BMP180;5768;51.476;7.210;2023-08-20T20:56:55;100967.00;;;25.80
11424;BMP180;5768;51.476;7.210;2023-08-20T21:01:58;100966.00;;;25.80
11424;BMP180;5768;51.476;7.210;2023-08-20T21:07:00;100957.00;;;25.80
11424;BMP180;5768;51.476;7.210;2023-08-20T21:12:05;100971.00;;;25.70
11424;BMP180;5768;51.476;7.210;2023-08-20T21:17:07;100979.00;;;25.60
11424;BMP180;5768;51.476;7.210;2023-08-20T21:22:10;100977.00;;;25.40
11424;BMP180;5768;51.476;7.210;2023-08-20T21:27:14;100972.00;;;25.30
11424;BMP180;5768;51.476;7.210;2023-08-20T21:32:16;100985.00;;;25.20
11424;BMP180;5768;51.476;7.210;2023-08-20T21:37:19;100983.00;;;25.10
11424;BMP180;5768;51.476;7.210;2023-08-20T21:42:25;100978.00;;;25.00
11424;BMP180;5768;51.476;7.210;2023-08-20T21:47:27;100976.00;;;24.90
11424;BMP180;5768;51.476;7.210;2023-08-20T21:52:29;100993.00;;;24.80
11424;BMP180;5768;51.476;7.210;2023-08-20T21:57:33;100985.00;;;24.70
11424;BMP180;5768;51.476;7.210;2023-08-20T22:02:35;100976.00;;;24.60
11424;BMP180;5768;51.476;7.210;2023-08-20T22:07:38;100977.00;;;24.50
11424;BMP180;5768;51.476;7.210;2023-08-20T22:12:42;100984.00;;;24.40
11424;BMP180;5768;51.476;7.210;2023-08-20T22:17:44;100976.00;;;24.30
11424;BMP180;5768;51.476;7.210;2023-08-20T22:22:47;100982.00;;;24.30
11424;BMP180;5768;51.476;7.210;2023-08-20T22:27:50;100988.00;;;24.20
11424;BMP180;5768;51.476;7.210;2023-08-20T22:32:53;100979.00;;;24.20
11424;BMP180;5768;51.476;7.210;2023-08-20T22:38:03;100984.00;;;24.20
11424;BMP180;5768;51.476;7.210;2023-08-20T22:43:08;100979.00;;;24.20
11424;BMP180;5768;51.476;7.210;2023-08-20T22:48:10;100970.00;;;24.10
11424;BMP180;5768;51.476;7.210;2023-08-20T22:53:12;100978.00;;;24.00
11424;BMP180;5768;51.476;7.210;2023-08-20T22:58:16;100979.00;;;23.90
11424;BMP180;5768;51.476;7.210;2023-08-20T23:03:18;100973.00;;;23.90
11424;BMP180;5768;51.476;7.210;2023-08-20T23:08:20;100965.00;;;23.80
11424;BMP180;5768;51.476;7.210;2023-08-20T23:13:24;100965.00;;;23.70
11424;BMP180;5768;51.476;7.210;2023-08-20T23:18:26;100957.00;;;23.60
11424;BMP180;5768;51.476;7.210;2023-08-20T23:23:29;100954.00;;;23.60
11424;BMP180;5768;51.476;7.210;2023-08-20T23:28:32;100958.00;;;23.50
11424;BMP180;5768;51.476;7.210;2023-08-20T23:33:35;100959.00;;;23.50
11424;BMP180;5768;51.476;7.210;2023-08-20T23:38:37;100962.00;;;23.40
11424;BMP180;5768;51.476;7.210;2023-08-20T23:43:43;100964.00;;;23.30
11424;BMP180;5768;51.476;7.210;2023-08-20T23:48:47;100959.00;;;23.20
11424;BMP180;5768;51.476;7.210;2023-08-20T23:53:50;100964.00;;;23.20
11424;BMP180;5768;51.476;7.210;2023-08-20T23:58:53;100978.00;;;23.20
